Time,TemperatureF,DewpointF,PressureIn,WindDirection,WindDirectionDegrees,WindSpeedMPH,WindSpeedGustMPH,Humidity,HourlyPrecipIn,Conditions,Clouds,dailyrainin,SoftwareType,DateUTC
2014-08-22 00:00:00,62.5,61.6,30.01,NW,307,0.0,0.0,97,0.00,RA,FEW,0.00,WeatherDisplay:10.37,2014-08-22 04:00:00,
2014-08-22 00:01:00,62.5,61.6,30.01,NW,307,0.0,0.0,97,0.00,RA,FEW,0.00,WeatherDisplay:10.37,2014-08-22 04:01:00,
2014-08-22 00:07:00,62.4,61.5,30.01,NW,307,0.0,0.0,97,0.00,RA,FEW,0.00,WeatherDisplay:10.37,2014-08-22 04:07:00,
2014-08-22 00:12:00,62.5,61.6,30.01,NW,307,0.0,0.0,97,0.00,CLR,FEW,0.00,WeatherDisplay:10.37,2014-08-22 04:12:00,
2014-08-22 00:17:00,62.5,61.6,30.01,NW,307,0.0,0.0,97,0.00,CLR,FEW,0.00,WeatherDisplay:10.37,2014-08-22 04:17:00,
2014-08-22 00:22:00,62.4,61.5,30.01,NW,307,0.0,0.0,97,0.00,CLR,FEW,0.00,WeatherDisplay:10.37,2014-08-22 04:22:00,
2014-08-22 00:27:00,62.5,61.6,30.01,NW,307,0.0,0.0,97,0.00,CLR,FEW,0.00,WeatherDisplay:10.37,2014-08-22 04:27:00,
2014-08-22 00:32:00,62.5,61.6,30.01,NW,307,0.0,0.0,97,0.00,CLR,FEW,0.00,WeatherDisplay:10.37,2014-08-22 04:32:00,
2014-08-22 00:37:00,62.5,61.6,30.01,NW,307,0.0,0.0,97,0.00,CLR,FEW,0.00,WeatherDisplay:10.37,2014-08-22 04:37:00,
2014-08-22 00:42:00,62.6,61.7,30.01,NW,307,0.0,0.0,97,0.00,CLR,FEW,0.00,WeatherDisplay:10.37,2014-08-22 04:42:00,
2014-08-22 00:47:00,62.8,61.9,30.01,NW,307,1.2,2.3,97,0.00,CLR,FEW,0.00,WeatherDisplay:10.37,2014-08-22 04:47:00,
2014-08-22 00:52:00,63.0,62.1,30.01,NW,307,0.9,2.0,97,0.00,CLR,FEW,0.00,WeatherDisplay:10.37,2014-08-22 04:52:00,
2014-08-22 00:57:00,63.1,62.2,30.01,NW,307,0.0,0.0,97,0.00,CLR,FEW,0.00,WeatherDisplay:10.37,2014-08-22 04:57:00,
2014-08-22 01:02:00,63.1,62.2,30.00,NW,307,0.0,0.0,97,0.00,CLR,FEW,0.00,WeatherDisplay:10.37,2014-08-22 05:02:00,
2014-08-22 01:07:00,63.1,62.2,30.00,NW,307,0.0,0.0,97,0.00,CLR,FEW,0.00,WeatherDisplay:10.37,2014-08-22 05:07:00,
2014-08-22 01:12:00,63.1,62.2,30.00,NW,307,0.0,0.0,97,0.00,CLR,FEW,0.00,WeatherDisplay:10.37,2014-08-22 05:12:00,
2014-08-22 01:17:00,63.1,62.2,30.01,NW,307,0.1,1.2,97,0.00,CLR,FEW,0.00,WeatherDisplay:10.37,2014-08-22 05:17:00,
2014-08-22 01:22:00,63.1,62.2,30.01,NW,307,0.0,1.2,97,0.00,CLR,FEW,0.00,WeatherDisplay:10.37,2014-08-22 05:22:00,
2014-08-22 01:27:00,63.2,62.6,30.01,NW,307,0.0,0.0,98,0.00,CLR,FEW,0.00,WeatherDisplay:10.37,2014-08-22 05:27:00,
2014-08-22 01:32:00,63.2,62.6,30.01,NW,307,0.0,0.0,98,0.00,CLR,FEW,0.00,WeatherDisplay:10.37,2014-08-22 05:32:00,
2014-08-22 01:37:00,63.2,62.3,30.01,NW,307,0.0,0.0,97,0.00,CLR,FEW,0.00,WeatherDisplay:10.37,2014-08-22 05:37:00,
2014-08-22 01:42:00,63.1,62.2,30.01,NW,307,0.0,0.0,97,0.00,CLR,FEW,0.00,WeatherDisplay:10.37,2014-08-22 05:42:00,
2014-08-22 01:47:00,63.1,62.2,30.01,NW,307,1.0,2.3,97,0.00,CLR,FEW,0.00,WeatherDisplay:10.37,2014-08-22 05:47:00,
2014-08-22 01:52:00,63.1,62.2,30.01,NW,307,0.3,1.2,97,0.00,CLR,FEW,0.00,WeatherDisplay:10.37,2014-08-22 05:52:00,
2014-08-22 01:57:00,63.1,62.2,30.01,NW,307,0.0,0.0,97,0.00,CLR,FEW,0.00,WeatherDisplay:10.37,2014-08-22 05:57:00,
2014-08-22 02:02:00,63.1,62.2,30.01,NW,307,0.0,0.0,97,0.00,CLR,FEW,0.00,WeatherDisplay:10.37,2014-08-22 06:02:00,
2014-08-22 02:07:00,63.2,62.3,30.01,NW,307,0.0,0.0,97,0.00,CLR,FEW,0.00,WeatherDisplay:10.37,2014-08-22 06:07:00,
2014-08-22 02:12:00,63.2,62.3,30.01,NW,307,0.0,0.0,97,0.00,CLR,FEW,0.00,WeatherDisplay:10.37,2014-08-22 06:12:00,
2014-08-22 02:17:00,63.1,62.2,30.01,NW,307,0.0,0.0,97,0.00,CLR,FEW,0.00,WeatherDisplay:10.37,2014-08-22 06:17:00,
2014-08-22 02:22:00,63.1,62.2,30.01,NW,307,0.0,0.0,97,0.00,CLR,FEW,0.00,WeatherDisplay:10.37,2014-08-22 06:22:00,
2014-08-22 02:27:00,63.1,62.2,30.01,NW,307,0.0,0.0,97,0.00,CLR,FEW,0.00,WeatherDisplay:10.37,2014-08-22 06:27:00,
2014-08-22 02:32:00,63.1,62.2,30.01,NW,307,0.0,0.0,97,0.00,CLR,FEW,0.00,WeatherDisplay:10.37,2014-08-22 06:32:00,
2014-08-22 02:37:00,63.1,62.2,30.01,NW,307,0.0,0.0,97,0.00,CLR,FEW,0.00,WeatherDisplay:10.37,2014-08-22 06:37:00,
2014-08-22 02:42:00,63.1,62.2,30.01,NW,307,0.0,0.0,97,0.00,CLR,FEW,0.00,WeatherDisplay:10.37,2014-08-22 06:42:00,
2014-08-22 02:47:00,63.2,62.3,30.01,NW,307,0.0,0.0,97,0.00,CLR,FEW,0.00,WeatherDisplay:10.37,2014-08-22 06:47:00,
2014-08-22 02:52:00,63.3,62.4,30.01,NW,307,0.0,0.0,97,0.00,CLR,FEW,0.00,WeatherDisplay:10.37,2014-08-22 06:52:00,
2014-08-22 02:57:00,63.3,62.4,30.01,NW,307,0.0,0.0,97,0.00,CLR,FEW,0.00,WeatherDisplay:10.37,2014-08-22 06:57:00,
2014-08-22 03:02:00,63.4,62.5,30.01,NW,307,0.0,0.0,97,0.00,CLR,FEW,0.00,WeatherDisplay:10.37,2014-08-22 07:02:00,
2014-08-22 03:07:00,63.4,62.5,30.01,NW,307,0.0,0.0,97,0.00,CLR,FEW,0.00,WeatherDisplay:10.37,2014-08-22 07:07:00,
2014-08-22 03:12:00,63.3,62.4,30.00,NW,307,0.0,0.0,97,0.00,CLR,FEW,0.00,WeatherDisplay:10.37,2014-08-22 07:12:00,
2014-08-22 03:17:00,63.3,62.4,30.00,NW,307,0.0,0.0,97,0.00,CLR,FEW,0.00,WeatherDisplay:10.37,2014-08-22 07:17:00,
2014-08-22 03:22:00,63.3,62.4,30.00,NW,307,0.0,0.0,97,0.00,CLR,FEW,0.00,WeatherDisplay:10.37,2014-08-22 07:22:00,
2014-08-22 03:27:00,63.3,62.4,30.00,NW,307,0.0,0.0,97,0.00,CLR,FEW,0.00,WeatherDisplay:10.37,2014-08-22 07:27:00,
2014-08-22 03:32:00,63.3,62.4,30.00,NW,307,0.0,0.0,97,0.00,CLR,FEW,0.00,WeatherDisplay:10.37,2014-08-22 07:32:00,
2014-08-22 03:37:00,63.3,62.4,30.00,NW,307,0.0,0.0,97,0.00,CLR,FEW,0.00,WeatherDisplay:10.37,2014-08-22 07:37:00,
2014-08-22 03:42:00,63.2,62.3,30.01,NW,307,0.0,0.0,97,0.00,CLR,FEW,0.00,WeatherDisplay:10.37,2014-08-22 07:42:00,
2014-08-22 03:47:00,63.2,62.3,30.01,NW,307,0.0,0.0,97,0.00,CLR,FEW,0.00,WeatherDisplay:10.37,2014-08-22 07:47:00,
2014-08-22 03:52:00,63.2,62.0,30.01,NW,307,0.0,0.0,96,0.00,CLR,FEW,0.00,WeatherDisplay:10.37,2014-08-22 07:52:00,
2014-08-22 03:57:00,63.1,61.9,30.01,NW,307,0.0,0.0,96,0.00,CLR,FEW,0.00,WeatherDisplay:10.37,2014-08-22 07:57:00,
2014-08-22 04:02:00,63.1,61.9,30.01,NW,307,0.0,0.0,96,0.00,CLR,FEW,0.00,WeatherDisplay:10.37,2014-08-22 08:02:00,
2014-08-22 04:07:00,63.1,61.9,30.01,NW,307,0.0,0.0,96,0.00,CLR,FEW,0.00,WeatherDisplay:10.37,2014-08-22 08:07:00,
2014-08-22 04:12:00,63.1,61.9,30.01,NW,307,0.0,0.0,96,0.00,CLR,FEW,0.00,WeatherDisplay:10.37,2014-08-22 08:12:00,
2014-08-22 04:17:00,63.1,61.9,30.01,NW,307,0.0,0.0,96,0.00,CLR,FEW,0.00,WeatherDisplay:10.37,2014-08-22 08:17:00,
2014-08-22 04:22:00,63.1,61.9,30.01,NW,307,0.0,0.0,96,0.00,CLR,FEW,0.00,WeatherDisplay:10.37,2014-08-22 08:22:00,
2014-08-22 04:27:00,63.0,61.8,30.01,NW,307,0.0,0.0,96,0.00,CLR,FEW,0.00,WeatherDisplay:10.37,2014-08-22 08:27:00,
2014-08-22 04:32:00,63.1,61.9,30.01,NW,307,0.0,0.0,96,0.00,CLR,FEW,0.00,WeatherDisplay:10.37,2014-08-22 08:32:00,
2014-08-22 04:37:00,63.1,61.9,30.01,NW,307,0.0,0.0,96,0.00,CLR,FEW,0.00,WeatherDisplay:10.37,2014-08-22 08:37:00,
2014-08-22 04:42:00,63.1,61.9,30.01,NW,307,0.0,0.0,96,0.00,CLR,FEW,0.00,WeatherDisplay:10.37,2014-08-22 08:42:00,
2014-08-22 04:47:00,63.1,61.9,30.01,NW,307,0.0,0.0,96,0.00,CLR,FEW,0.00,WeatherDisplay:10.37,2014-08-22 08:47:00,
2014-08-22 04:52:00,63.1,61.9,30.01,NW,307,0.0,0.0,96,0.00,CLR,FEW,0.00,WeatherDisplay:10.37,2014-08-22 08:52:00,
2014-08-22 04:57:00,63.1,61.9,30.01,NW,307,0.0,0.0,96,0.00,CLR,FEW,0.00,WeatherDisplay:10.37,2014-08-22 08:57:00,
2014-08-22 05:02:00,63.1,61.9,30.01,NW,307,0.0,0.0,96,0.00,CLR,FEW,0.00,WeatherDisplay:10.37,2014-08-22 09:02:00,
2014-08-22 05:07:00,63.1,61.9,30.01,NW,307,2.2,4.0,96,0.00,CLR,FEW,0.00,WeatherDisplay:10.37,2014-08-22 09:07:00,
2014-08-22 05:12:00,63.1,61.6,30.01,NW,307,1.4,2.3,95,0.00,CLR,FEW,0.00,WeatherDisplay:10.37,2014-08-22 09:12:00,
2014-08-22 05:17:00,63.1,61.6,30.01,NW,307,0.4,3.0,95,0.00,CLR,FEW,0.00,WeatherDisplay:10.37,2014-08-22 09:17:00,
2014-08-22 05:22:00,63.1,61.6,30.01,NW,307,0.8,2.3,95,0.00,CLR,FEW,0.00,WeatherDisplay:10.37,2014-08-22 09:22:00,
2014-08-22 05:27:00,63.0,61.5,30.02,NW,307,0.4,3.5,95,0.00,CLR,FEW,0.00,WeatherDisplay:10.37,2014-08-22 09:27:00,
2014-08-22 05:32:00,63.1,61.6,30.02,NW,307,0.0,1.2,95,0.00,CLR,FEW,0.00,WeatherDisplay:10.37,2014-08-22 09:32:00,
2014-08-22 05:37:00,63.1,61.6,30.02,NW,307,0.3,2.3,95,0.00,CLR,FEW,0.00,WeatherDisplay:10.37,2014-08-22 09:37:00,
2014-08-22 05:42:00,63.1,61.6,30.03,NW,307,0.5,2.0,95,0.00,CLR,FEW,0.00,WeatherDisplay:10.37,2014-08-22 09:42:00,
2014-08-22 05:47:00,63.0,61.5,30.03,NW,307,0.5,1.2,95,0.00,CLR,FEW,0.00,WeatherDisplay:10.37,2014-08-22 09:47:00,
2014-08-22 05:52:00,63.0,61.5,30.03,West,281,2.6,3.0,95,0.00,CLR,FEW,0.00,WeatherDisplay:10.37,2014-08-22 09:52:00,
2014-08-22 05:57:00,62.9,61.4,30.03,West,281,0.1,2.3,95,0.00,CLR,FEW,0.00,WeatherDisplay:10.37,2014-08-22 09:57:00,
2014-08-22 06:03:00,62.9,61.4,30.03,West,281,1.9,2.3,95,0.00,CLR,FEW,0.00,WeatherDisplay:10.37,2014-08-22 10:03:00,
2014-08-22 06:08:00,62.9,61.4,30.03,West,281,2.3,3.5,95,0.00,CLR,FEW,0.00,WeatherDisplay:10.37,2014-08-22 10:08:00,
2014-08-22 06:13:00,62.8,61.0,30.03,West,281,1.9,3.5,94,0.00,CLR,FEW,0.00,WeatherDisplay:10.37,2014-08-22 10:13:00,
2014-08-22 06:18:00,62.8,61.3,30.03,West,281,0.5,2.3,95,0.00,CLR,FEW,0.00,WeatherDisplay:10.37,2014-08-22 10:18:00,
2014-08-22 06:23:00,62.8,61.0,30.03,West,281,1.5,3.5,94,0.00,CLR,FEW,0.00,WeatherDisplay:10.37,2014-08-22 10:23:00,
2014-08-22 06:28:00,62.8,61.0,30.04,West,281,0.2,1.2,94,0.00,CLR,FEW,0.00,WeatherDisplay:10.37,2014-08-22 10:28:00,
2014-08-22 06:33:00,62.9,61.1,30.04,West,281,0.6,2.3,94,0.00,CLR,FEW,0.00,WeatherDisplay:10.37,2014-08-22 10:33:00,
2014-08-22 06:38:00,62.9,61.1,30.04,West,281,0.0,1.2,94,0.00,CLR,FEW,0.00,WeatherDisplay:10.37,2014-08-22 10:38:00,
2014-08-22 06:43:00,62.9,61.1,30.04,West,281,0.0,0.0,94,0.00,CLR,FEW,0.00,WeatherDisplay:10.37,2014-08-22 10:43:00,
2014-08-22 06:48:00,62.9,61.1,30.04,West,281,0.1,1.0,94,0.00,CLR,FEW,0.00,WeatherDisplay:10.37,2014-08-22 10:48:00,
2014-08-22 06:53:00,63.0,61.2,30.04,West,281,0.0,1.0,94,0.00,CLR,FEW,0.00,WeatherDisplay:10.37,2014-08-22 10:53:00,
2014-08-22 06:58:00,62.9,61.1,30.04,West,281,0.0,0.0,94,0.00,CLR,FEW,0.00,WeatherDisplay:10.37,2014-08-22 10:58:00,
2014-08-22 07:03:00,62.9,60.8,30.04,West,281,0.0,0.0,93,0.00,CLR,FEW,0.00,WeatherDisplay:10.37,2014-08-22 11:03:00,
2014-08-22 07:08:00,63.0,61.2,30.04,West,281,0.0,0.0,94,0.00,CLR,FEW,0.00,WeatherDisplay:10.37,2014-08-22 11:08:00,
2014-08-22 07:13:00,63.0,61.2,30.04,West,281,0.0,0.0,94,0.00,CLR,FEW,0.00,WeatherDisplay:10.37,2014-08-22 11:13:00,
2014-08-22 07:18:00,63.0,61.2,30.04,West,281,0.0,0.0,94,0.00,CLR,FEW,0.00,WeatherDisplay:10.37,2014-08-22 11:18:00,
2014-08-22 07:23:00,63.1,61.3,30.04,West,281,0.3,1.2,94,0.00,CLR,FEW,0.00,WeatherDisplay:10.37,2014-08-22 11:23:00,
2014-08-22 07:28:00,63.1,61.3,30.04,West,281,0.3,1.2,94,0.00,CLR,FEW,0.00,WeatherDisplay:10.37,2014-08-22 11:28:00,
2014-08-22 07:33:00,63.1,61.3,30.04,West,281,0.0,0.0,94,0.00,CLR,FEW,0.00,WeatherDisplay:10.37,2014-08-22 11:33:00,
2014-08-22 07:38:00,63.1,61.3,30.04,West,281,0.0,1.2,94,0.00,CLR,FEW,0.00,WeatherDisplay:10.37,2014-08-22 11:38:00,
2014-08-22 07:43:00,63.1,61.3,30.04,West,281,0.0,0.0,94,0.00,CLR,FEW,0.00,WeatherDisplay:10.37,2014-08-22 11:43:00,
2014-08-22 07:48:00,63.1,61.3,30.04,West,281,0.0,0.0,94,0.00,CLR,FEW,0.00,WeatherDisplay:10.37,2014-08-22 11:48:00,
2014-08-22 07:53:00,63.2,61.4,30.04,West,281,0.0,0.0,94,0.00,CLR,FEW,0.00,WeatherDisplay:10.37,2014-08-22 11:53:00,
2014-08-22 07:58:00,63.2,61.4,30.05,West,281,0.1,1.2,94,0.00,CLR,FEW,0.00,WeatherDisplay:10.37,2014-08-22 11:58:00,
2014-08-22 08:03:00,63.3,61.5,30.05,West,281,0.1,1.2,94,0.00,CLR,FEW,0.00,WeatherDisplay:10.37,2014-08-22 12:03:00,
2014-08-22 08:08:00,63.3,61.5,30.05,West,281,0.2,2.3,94,0.00,CLR,FEW,0.00,WeatherDisplay:10.37,2014-08-22 12:08:00,
2014-08-22 08:13:00,63.4,61.6,30.05,West,281,0.5,3.5,94,0.00,CLR,FEW,0.00,WeatherDisplay:10.37,2014-08-22 12:13:00,
2014-08-22 08:18:00,63.4,61.6,30.05,West,281,0.4,2.3,94,0.00,CLR,FEW,0.00,WeatherDisplay:10.37,2014-08-22 12:18:00,
2014-08-22 08:23:00,63.4,61.6,30.05,West,281,1.6,3.5,94,0.00,CLR,FEW,0.00,WeatherDisplay:10.37,2014-08-22 12:23:00,
2014-08-22 08:28:00,63.5,61.4,30.05,West,281,0.3,1.2,93,0.00,CLR,FEW,0.00,WeatherDisplay:10.37,2014-08-22 12:28:00,
2014-08-22 08:33:00,63.6,61.5,30.05,West,281,0.0,0.0,93,0.00,CLR,FEW,0.00,WeatherDisplay:10.37,2014-08-22 12:33:00,
2014-08-22 08:38:00,63.8,61.4,30.05,West,281,0.1,1.2,92,0.00,CLR,FEW,0.00,WeatherDisplay:10.37,2014-08-22 12:38:00,
2014-08-22 08:43:00,64.0,61.3,30.05,West,281,0.0,0.0,91,0.00,CLR,FEW,0.00,WeatherDisplay:10.37,2014-08-22 12:43:00,
2014-08-22 08:48:00,64.2,61.5,30.05,West,281,0.9,3.0,91,0.00,CLR,FEW,0.00,WeatherDisplay:10.37,2014-08-22 12:48:00,
2014-08-22 08:53:00,64.2,61.2,30.05,West,281,0.0,1.2,90,0.00,CLR,FEW,0.00,WeatherDisplay:10.37,2014-08-22 12:53:00,
2014-08-22 08:58:00,64.2,61.2,30.05,West,281,1.0,2.3,90,0.01,RA,FEW,0.01,WeatherDisplay:10.37,2014-08-22 12:58:00,
2014-08-22 09:03:00,64.3,61.3,30.05,West,281,1.8,4.6,90,0.01,RA,FEW,0.01,WeatherDisplay:10.37,2014-08-22 13:03:00,
2014-08-22 09:08:00,64.3,61.3,30.05,West,281,0.4,2.0,90,0.01,,FEW,0.01,WeatherDisplay:10.37,2014-08-22 13:08:00,
2014-08-22 09:13:00,64.3,61.0,30.05,West,281,0.0,1.2,89,0.01,CLR,FEW,0.01,WeatherDisplay:10.37,2014-08-22 13:13:00,
2014-08-22 09:18:00,64.4,61.1,30.05,West,281,0.1,1.2,89,0.01,CLR,FEW,0.01,WeatherDisplay:10.37,2014-08-22 13:18:00,
2014-08-22 09:23:00,64.3,61.3,30.05,West,281,0.2,1.2,90,0.01,CLR,FEW,0.01,WeatherDisplay:10.37,2014-08-22 13:23:00,
2014-08-22 09:28:00,64.4,61.4,30.05,West,281,0.2,2.3,90,0.01,CLR,FEW,0.01,WeatherDisplay:10.37,2014-08-22 13:28:00,
2014-08-22 09:33:00,64.4,61.1,30.05,West,281,0.6,3.5,89,0.01,CLR,FEW,0.01,WeatherDisplay:10.37,2014-08-22 13:33:00,
2014-08-22 09:38:00,64.4,61.1,30.05,West,281,0.6,2.3,89,0.01,CLR,FEW,0.01,WeatherDisplay:10.37,2014-08-22 13:38:00,
2014-08-22 09:43:00,64.6,61.3,30.05,West,281,0.2,1.2,89,0.01,CLR,FEW,0.01,WeatherDisplay:10.37,2014-08-22 13:43:00,
2014-08-22 09:48:00,64.7,61.4,30.05,West,281,1.9,3.5,89,0.01,CLR,FEW,0.01,WeatherDisplay:10.37,2014-08-22 13:48:00,
2014-08-22 09:53:00,64.8,61.2,30.05,West,281,0.8,2.3,88,0.01,CLR,FEW,0.01,WeatherDisplay:10.37,2014-08-22 13:53:00,
2014-08-22 09:58:00,65.0,61.4,30.05,West,281,0.3,1.2,88,0.00,CLR,FEW,0.01,WeatherDisplay:10.37,2014-08-22 13:58:00,
2014-08-22 10:03:00,65.2,61.2,30.05,West,280,0.5,3.5,87,0.00,CLR,FEW,0.01,WeatherDisplay:10.37,2014-08-22 14:03:00,
2014-08-22 10:08:00,65.4,61.4,30.05,West,280,3.4,6.0,87,0.00,CLR,FEW,0.01,WeatherDisplay:10.37,2014-08-22 14:08:00,
2014-08-22 10:13:00,65.5,61.2,30.05,West,280,0.5,5.0,86,0.00,CLR,FEW,0.01,WeatherDisplay:10.37,2014-08-22 14:13:00,
2014-08-22 10:18:00,65.7,61.4,30.05,NW,307,1.9,3.5,86,0.00,CLR,FEW,0.01,WeatherDisplay:10.37,2014-08-22 14:18:00,
2014-08-22 10:23:00,65.8,61.5,30.05,West,281,1.4,4.0,86,0.00,CLR,FEW,0.01,WeatherDisplay:10.37,2014-08-22 14:23:00,
2014-08-22 10:28:00,65.8,61.2,30.05,West,280,2.0,4.6,85,0.00,CLR,FEW,0.01,WeatherDisplay:10.37,2014-08-22 14:28:00,
2014-08-22 10:33:00,65.8,60.8,30.05,West,280,2.4,5.8,84,0.00,CLR,FEW,0.01,WeatherDisplay:10.37,2014-08-22 14:33:00,
2014-08-22 10:38:00,65.8,60.8,30.05,West,280,3.2,4.6,84,0.00,CLR,FEW,0.01,WeatherDisplay:10.37,2014-08-22 14:38:00,
2014-08-22 10:43:00,65.8,61.2,30.05,West,280,2.3,3.5,85,0.00,CLR,FEW,0.01,WeatherDisplay:10.37,2014-08-22 14:43:00,
2014-08-22 10:48:00,66.0,61.4,30.05,West,280,3.3,6.0,85,0.00,CLR,FEW,0.01,WeatherDisplay:10.37,2014-08-22 14:48:00,
2014-08-22 10:53:00,66.0,61.0,30.05,West,281,0.5,3.5,84,0.00,CLR,FEW,0.01,WeatherDisplay:10.37,2014-08-22 14:53:00,
2014-08-22 10:58:00,66.2,61.2,30.04,West,281,1.6,4.6,84,0.00,CLR,FEW,0.01,WeatherDisplay:10.37,2014-08-22 14:58:00,
2014-08-22 11:03:00,66.4,61.8,30.04,West,281,3.0,4.6,85,0.00,CLR,FEW,0.01,WeatherDisplay:10.37,2014-08-22 15:03:00,
2014-08-22 11:08:00,66.7,61.7,30.04,West,280,0.7,5.0,84,0.00,CLR,FEW,0.01,WeatherDisplay:10.37,2014-08-22 15:08:00,
2014-08-22 11:13:00,66.9,61.6,30.04,West,281,2.1,3.5,83,0.00,CLR,FEW,0.01,WeatherDisplay:10.37,2014-08-22 15:13:00,
2014-08-22 11:18:00,67.3,61.3,30.04,NW,307,2.9,3.5,81,0.00,CLR,FEW,0.01,WeatherDisplay:10.37,2014-08-22 15:18:00,
2014-08-22 11:23:00,67.5,62.2,30.04,West,281,1.1,6.9,83,0.00,CLR,FEW,0.01,WeatherDisplay:10.37,2014-08-22 15:23:00,
2014-08-22 11:28:00,67.7,62.0,30.04,West,280,2.7,5.8,82,0.00,CLR,FEW,0.01,WeatherDisplay:10.37,2014-08-22 15:28:00,
2014-08-22 11:33:00,67.4,61.4,30.04,West,280,0.9,4.6,81,0.00,CLR,FEW,0.01,WeatherDisplay:10.37,2014-08-22 15:33:00,
2014-08-22 11:38:00,67.3,61.6,30.04,West,281,1.9,4.0,82,0.00,CLR,FEW,0.01,WeatherDisplay:10.37,2014-08-22 15:38:00,
2014-08-22 11:43:00,67.5,61.8,30.03,West,280,1.9,3.5,82,0.00,CLR,FEW,0.01,WeatherDisplay:10.37,2014-08-22 15:43:00,
2014-08-22 11:48:00,67.6,61.6,30.03,West,281,0.4,3.5,81,0.00,CLR,FEW,0.01,WeatherDisplay:10.37,2014-08-22 15:48:00,
2014-08-22 11:53:00,67.6,61.6,30.03,West,280,0.8,2.3,81,0.00,CLR,FEW,0.01,WeatherDisplay:10.37,2014-08-22 15:53:00,
2014-08-22 11:58:00,67.7,61.7,30.04,West,281,0.3,3.5,81,0.00,CLR,FEW,0.01,WeatherDisplay:10.37,2014-08-22 15:58:00,
2014-08-22 12:03:00,67.7,61.7,30.04,West,281,0.2,1.2,81,0.00,CLR,FEW,0.01,WeatherDisplay:10.37,2014-08-22 16:03:00,